Time;durP1;ratioP1;P1;durP2;ratioP2;P2;SDS_P1;SDS_P2;PMS_P1;PMS_P2;Temp;Humidity;BMP_temperature;BMP_pressure;BME280_temperature;BME280_humidity;BME280_pressure;Samples;Min_cycle;Max_cycle;Signal;HPM_P1;HPM_P2
2022/11/18 01:05:47;;;;;;;8.55;3.03;;;9.90;99.90;;;;;;4996207;28;20031;-88
2022/11/18 01:08:39;;;;;;;9.25;3.15;;;12.60;99.90;;;;;;4996963;28;20014;-88
2022/11/18 01:14:11;;;;;;;5.85;2.20;;;9.60;99.90;;;;;;4998480;28;20112;-85
2022/11/18 01:17:04;;;;;;;8.90;3.10;;;11.60;99.90;;;;;;5007456;28;20017;-84
2022/11/18 01:19:36;;;;;;;9.50;2.55;;;11.50;99.90;;;;;;4973558;28;20022;-87
2022/11/18 01:22:02;;;;;;;9.25;2.85;;;7.40;99.90;;;;;;4982713;28;20062;-85
2022/11/18 01:24:54;;;;;;;7.28;2.53;;;10.00;99.90;;;;;;4982293;28;20043;-82
2022/11/18 01:27:20;;;;;;;6.53;2.70;;;10.00;99.90;;;;;;4978060;28;20015;-85
2022/11/18 01:30:15;;;;;;;8.23;2.83;;;12.80;99.90;;;;;;4994186;28;20042;-83
2022/11/18 01:33:29;;;;;;;6.53;2.63;;;9.60;99.90;;;;;;4979997;28;20031;-83
2022/11/18 01:35:54;;;;;;;5.90;2.60;;;10.00;99.90;;;;;;4990395;28;20031;-83
2022/11/18 01:38:20;;;;;;;10.20;3.08;;;;;;;;;;4978828;28;20042;-84
2022/11/18 01:40:46;;;;;;;10.68;3.60;;;10.00;99.90;;;;;;4980737;28;20061;-83
2022/11/18 01:43:19;;;;;;;8.30;3.22;;;10.00;99.90;;;;;;4993013;28;20068;-83
2022/11/18 01:46:41;;;;;;;6.97;2.85;;;9.40;99.90;;;;;;4987097;28;20043;-83
2022/11/18 01:49:14;;;;;;;8.48;2.85;;;11.30;99.90;;;;;;4954458;29;20059;-83
2022/11/18 01:51:52;;;;;;;7.90;2.53;;;9.90;99.90;;;;;;4970875;28;23107;-84
2022/11/18 01:54:31;;;;;;;5.47;2.70;;;9.90;99.90;;;;;;4956234;28;20031;-82
2022/11/18 01:57:20;;;;;;;13.07;1.98;;;10.00;99.90;;;;;;4972842;28;20055;-83
2022/11/18 02:00:08;;;;;;;5.50;2.28;;;10.00;99.90;;;;;;4968604;28;20027;-84
2022/11/18 02:02:37;;;;;;;2.40;1.15;;;12.30;99.90;;;;;;4976502;28;20027;-83
2022/11/18 02:05:24;;;;;;;4.90;1.30;;;10.00;99.90;;;;;;4955350;28;20038;-83
2022/11/18 02:07:53;;;;;;;5.97;1.90;;;;;;;;;;4973316;28;20177;-83
2022/11/18 02:11:04;;;;;;;2.80;1.10;;;9.90;99.90;;;;;;4984070;28;20031;-84
2022/11/18 02:13:49;;;;;;;;;;;10.00;99.90;;;;;;4929158;29;20033;-83
2022/11/18 02:16:44;;;;;;;1.55;0.85;;;9.60;99.90;;;;;;4919194;29;19919;-83
2022/11/18 02:19:40;;;;;;;2.10;1.00;;;9.60;99.90;;;;;;4924979;29;20024;-84
2022/11/18 02:22:53;;;;;;;2.60;0.80;;;9.60;99.90;;;;;;4944711;28;20050;-84
2022/11/18 02:25:37;;;;;;;2.15;0.90;;;9.60;99.90;;;;;;4971710;28;20134;-83
2022/11/18 02:28:48;;;;;;;3.65;1.08;;;9.60;99.90;;;;;;4974489;28;20034;-84
2022/11/18 02:31:17;;;;;;;;;;;9.60;99.90;;;;;;4974458;28;20026;-84
2022/11/18 02:33:59;;;;;;;6.63;1.00;;;9.50;99.90;;;;;;4965784;28;19982;-82
2022/11/18 02:36:32;;;;;;;2.88;0.85;;;;;;;;;;4979079;28;20054;-86
2022/11/18 02:39:07;;;;;;;4.43;1.33;;;9.40;99.90;;;;;;4990319;28;20090;-85
2022/11/18 02:41:35;;;;;;;2.47;0.77;;;9.30;99.90;;;;;;4975020;28;20038;-87
2022/11/18 02:44:13;;;;;;;3.95;0.90;;;9.20;99.90;;;;;;4971521;28;20019;-86
2022/11/18 02:47:16;;;;;;;2.13;0.75;;;9.20;99.90;;;;;;4971756;28;20019;-86
2022/11/18 02:50:10;;;;;;;3.50;1.00;;;9.20;99.90;;;;;;4990278;28;20044;-83
2022/11/18 02:52:39;;;;;;;2.45;0.88;;;9.10;99.90;;;;;;4963930;28;20042;-83
2022/11/18 02:55:09;;;;;;;1.58;0.70;;;11.00;99.90;;;;;;4970913;28;20081;-84
2022/11/18 02:57:55;;;;;;;1.77;0.70;;;9.10;99.90;;;;;;4970400;28;20031;-84
2022/11/18 03:00:21;;;;;;;2.83;0.70;;;;;;;;;;4958172;28;20038;-86
2022/11/18 03:02:49;;;;;;;3.83;1.13;;;9.00;99.90;;;;;;4970174;28;20034;-85
2022/11/18 03:05:42;;;;;;;2.55;1.08;;;9.00;99.90;;;;;;4967996;28;20027;-83
2022/11/18 03:08:21;;;;;;;3.03;0.70;;;9.00;99.90;;;;;;4987148;28;20027;-84
2022/11/18 03:10:59;;;;;;;2.53;0.70;;;10.10;99.90;;;;;;4975568;28;20024;-86
2022/11/18 03:14:12;;;;;;;0.85;0.50;;;9.80;99.90;;;;;;4960552;29;20035;-87
2022/11/18 03:17:18;;;;;;;2.13;0.80;;;11.20;99.90;;;;;;4994316;28;20026;-83
2022/11/18 03:20:24;;;;;;;4.53;0.60;;;9.00;99.90;;;;;;4957491;28;20062;-88
2022/11/18 03:23:33;;;;;;;2.63;0.80;;;9.10;99.90;;;;;;4978422;28;20028;-89
2022/11/18 03:26:32;;;;;;;2.03;0.60;;;9.30;99.90;;;;;;4962663;28;20026;-88
2022/11/18 03:32:42;;;;;;;1.67;0.50;;;9.10;99.90;;;;;;4904515;29;20050;-89
2022/11/18 03:35:34;;;;;;;0.98;0.60;;;8.70;99.90;;;;;;4893514;29;20025;-87
2022/11/18 03:38:09;;;;;;;1.02;0.50;;;11.20;99.90;;;;;;4869567;29;20114;-89
2022/11/18 03:40:41;;;;;;;1.13;0.43;;;10.40;99.90;;;;;;4972202;28;20031;-88
2022/11/18 03:43:33;;;;;;;2.28;0.73;;;11.40;99.90;;;;;;4967069;28;20027;-89
2022/11/18 03:46:28;;;;;;;0.95;0.50;;;9.00;99.90;;;;;;4967692;28;20018;-89
2022/11/18 03:48:56;;;;;;;1.33;0.50;;;10.50;99.90;;;;;;5001106;28;20010;-88
2022/11/18 03:52:01;;;;;;;3.80;0.80;;;11.00;99.90;;;;;;4989380;28;20030;-87
2022/11/18 03:55:12;;;;;;;0.70;0.57;;;10.10;99.90;;;;;;4980702;28;20039;-83
2022/11/18 03:58:24;;;;;;;3.15;0.70;;;9.10;99.90;;;;;;4977752;28;20012;-83
2022/11/18 04:01:42;;;;;;;1.85;0.70;;;10.30;99.90;;;;;;4992244;28;20099;-83
2022/11/18 04:04:08;;;;;;;1.33;0.70;;;9.10;99.90;;;;;;4964626;28;20540;-85
2022/11/18 04:07:34;;;;;;;1.83;0.60;;;10.60;99.90;;;;;;4980108;28;20489;-84
2022/11/18 04:10:40;;;;;;;2.70;0.80;;;9.00;99.90;;;;;;4881771;29;20097;-84
2022/11/18 04:13:24;;;;;;;1.80;0.82;;;10.90;99.90;;;;;;4895124;29;20028;-85
2022/11/18 04:15:50;;;;;;;0.98;0.70;;;11.30;99.90;;;;;;4960503;28;20026;-85
2022/11/18 04:18:16;;;;;;;4.95;1.13;;;10.90;99.90;;;;;;4974644;28;20035;-85
2022/11/18 04:20:42;;;;;;;2.40;1.00;;;9.70;99.90;;;;;;4968845;28;20069;-86
2022/11/18 04:23:22;;;;;;;4.05;1.00;;;9.00;99.90;;;;;;4971885;28;20027;-88
2022/11/18 04:25:48;;;;;;;4.57;1.00;;;9.00;99.90;;;;;;4995133;28;20074;-87
2022/11/18 04:28:14;;;;;;;2.28;0.98;;;9.10;99.90;;;;;;4993946;28;20015;-89
2022/11/18 04:30:52;;;;;;;1.95;0.70;;;10.40;99.90;;;;;;4963082;28;20027;-83
2022/11/18 04:33:17;;;;;;;1.67;0.60;;;9.40;99.90;;;;;;4979218;28;20019;-89
2022/11/18 04:36:09;;;;;;;2.65;0.52;;;8.90;99.90;;;;;;4980518;28;20026;-84
2022/11/18 04:38:35;;;;;;;3.25;1.25;;;7.80;99.90;;;;;;4979844;28;20078;-84
2022/11/18 04:41:01;;;;;;;2.58;0.73;;;;;;;;;;4981757;28;20027;-88
2022/11/18 04:43:26;;;;;;;1.48;0.80;;;8.90;99.90;;;;;;4981331;28;20039;-85
2022/11/18 04:45:52;;;;;;;4.93;0.70;;;;;;;;;;4980852;28;20034;-85
2022/11/18 04:48:19;;;;;;;2.33;0.70;;;8.90;99.90;;;;;;4987217;28;20014;-84
2022/11/18 04:50:45;;;;;;;1.83;0.80;;;10.80;99.90;;;;;;4958992;29;20042;-84
2022/11/18 04:53:11;;;;;;;2.20;0.80;;;8.90;99.90;;;;;;4980989;28;20023;-84
2022/11/18 04:55:40;;;;;;;1.05;0.90;;;;;;;;;;4969525;28;20019;-84
2022/11/18 04:58:26;;;;;;;0.60;0.60;;;;;;;;;;4989521;28;20239;-87
2022/11/18 05:01:00;;;;;;;1.73;0.90;;;9.00;99.90;;;;;;4960644;28;20023;-86
2022/11/18 05:06:24;;;;;;;1.35;0.88;;;9.00;99.90;;;;;;5011832;28;20061;-85
2022/11/18 05:08:50;;;;;;;2.03;1.10;;;8.90;99.90;;;;;;5001101;28;20018;-84
2022/11/18 05:14:01;;;;;;;3.00;1.60;;;;;;;;;;4995404;28;20010;-87
2022/11/18 05:16:27;;;;;;;3.45;1.40;;;8.90;99.90;;;;;;4997196;28;20151;-86
2022/11/18 05:27:34;;;;;;;4.60;1.58;;;8.90;99.90;;;;;;4980272;28;20026;-90
2022/11/18 05:30:03;;;;;;;3.83;1.50;;;;;;;;;;4974746;28;20060;-87
2022/11/18 05:32:29;;;;;;;4.80;1.50;;;;;;;;;;4971253;28;20039;-89
2022/11/18 05:34:55;;;;;;;3.33;1.55;;;8.90;99.90;;;;;;4983675;28;20095;-85
2022/11/18 05:37:21;;;;;;;2.13;1.50;;;;;;;;;;4961484;28;20563;-88
2022/11/18 05:39:47;;;;;;;4.18;1.70;;;;;;;;;;4958992;28;20019;-87
2022/11/18 05:45:01;;;;;;;3.72;1.58;;;;;;;;;;4978072;28;20091;-89
2022/11/18 05:47:58;;;;;;;4.88;2.22;;;;;;;;;;4961641;28;20043;-88
2022/11/18 05:51:07;;;;;;;5.53;2.40;;;8.80;99.90;;;;;;4978395;28;20059;-88
2022/11/18 05:53:37;;;;;;;4.28;2.00;;;8.70;99.90;;;;;;4971866;28;20011;-86
2022/11/18 09:19:33;;;;;;;8.07;1.85;;;10.30;99.90;;;;;;5001314;28;20111;-86
2022/11/18 09:22:01;;;;;;;6.43;1.90;;;10.30;99.90;;;;;;4980032;28;20038;-81
2022/11/18 09:24:27;;;;;;;6.20;1.85;;;10.40;99.90;;;;;;4975732;28;20033;-83
2022/11/18 09:26:53;;;;;;;7.00;1.60;;;10.50;99.90;;;;;;4974255;28;20077;-87
2022/11/18 09:29:24;;;;;;;7.82;2.03;;;10.80;99.90;;;;;;5000324;28;20031;-87
2022/11/18 09:31:50;;;;;;;8.52;2.75;;;10.50;99.90;;;;;;4987097;28;20038;-83
2022/11/18 09:34:15;;;;;;;7.68;1.75;;;10.50;99.90;;;;;;4983860;28;20034;-82
2022/11/18 09:36:41;;;;;;;7.35;1.70;;;11.10;99.90;;;;;;4982728;28;20034;-87
2022/11/18 09:39:07;;;;;;;7.93;2.38;;;10.70;99.90;;;;;;4983607;28;20030;-87
2022/11/18 09:42:07;;;;;;;9.75;2.63;;;10.60;99.90;;;;;;4985032;28;20085;-85
2022/11/18 09:44:33;;;;;;;11.68;2.42;;;10.80;99.90;;;;;;4998890;28;20076;-85
2022/11/18 09:47:13;;;;;;;7.75;1.90;;;10.80;99.90;;;;;;4982774;28;20022;-85
2022/11/18 09:49:43;;;;;;;7.05;1.60;;;11.00;99.90;;;;;;4983593;28;20025;-83
2022/11/18 09:52:17;;;;;;;4.65;1.83;;;10.90;99.90;;;;;;4975714;28;20030;-86
2022/11/18 09:54:43;;;;;;;6.78;1.75;;;11.60;99.90;;;;;;4980053;28;20053;-84
2022/11/18 09:57:23;;;;;;;6.60;1.88;;;12.60;99.90;;;;;;4997863;28;20026;-87
2022/11/18 09:59:48;;;;;;;7.45;1.90;;;10.90;99.90;;;;;;4983001;28;20045;-85
2022/11/18 10:02:40;;;;;;;10.20;1.77;;;10.90;99.90;;;;;;4982581;28;20034;-88
2022/11/18 10:05:18;;;;;;;8.38;1.60;;;11.00;99.90;;;;;;4976634;28;20117;-86
2022/11/18 10:08:16;;;;;;;5.53;1.85;;;11.10;99.90;;;;;;4983868;28;20027;-87
2022/11/18 10:10:53;;;;;;;7.65;1.65;;;11.20;99.90;;;;;;4985507;28;20031;-87
2022/11/18 10:13:57;;;;;;;8.07;2.15;;;11.80;99.90;;;;;;4997868;28;20053;-87
2022/11/18 10:16:42;;;;;;;8.57;2.00;;;11.40;99.90;;;;;;5008258;28;20117;-88
2022/11/18 10:19:38;;;;;;;9.10;1.73;;;11.40;99.90;;;;;;4987193;28;20038;-86
2022/11/18 10:22:13;;;;;;;12.90;2.00;;;11.50;99.90;;;;;;4988463;28;20031;-85
2022/11/18 10:24:43;;;;;;;8.20;1.67;;;11.60;99.90;;;;;;5004416;28;20034;-84
2022/11/18 10:27:14;;;;;;;7.67;1.80;;;11.60;99.90;;;;;;4986328;28;20077;-84
2022/11/18 10:29:41;;;;;;;6.63;1.77;;;11.50;99.90;;;;;;4986450;28;20110;-82
2022/11/18 10:32:12;;;;;;;6.20;1.70;;;12.50;99.90;;;;;;4989447;28;20084;-84
2022/11/18 10:34:57;;;;;;;6.32;1.40;;;11.90;99.90;;;;;;4994485;28;20150;-82
2022/11/18 10:37:29;;;;;;;6.75;1.80;;;11.40;99.90;;;;;;5003414;28;20392;-85
2022/11/18 10:39:56;;;;;;;8.38;1.40;;;12.20;99.90;;;;;;4996748;28;20256;-84
2022/11/18 10:42:46;;;;;;;7.50;1.45;;;11.40;99.90;;;;;;5004753;28;20109;-83
2022/11/18 10:45:21;;;;;;;7.03;1.63;;;11.40;99.90;;;;;;4981628;28;20019;-86
2022/11/18 10:47:57;;;;;;;7.85;1.67;;;11.40;99.90;;;;;;4994780;28;20026;-84
2022/11/18 10:50:31;;;;;;;5.70;1.13;;;11.40;99.90;;;;;;4987924;28;20282;-85
2022/11/18 10:52:57;;;;;;;7.35;1.50;;;11.60;99.90;;;;;;4990039;28;20034;-84
2022/11/18 10:55:24;;;;;;;8.82;1.42;;;11.80;99.90;;;;;;4991565;28;20325;-82
2022/11/18 10:57:56;;;;;;;5.55;1.30;;;11.80;99.90;;;;;;4976030;28;20626;-86
2022/11/18 11:00:34;;;;;;;5.25;1.40;;;11.80;99.90;;;;;;5004314;28;20030;-89
2022/11/18 11:03:00;;;;;;;6.10;1.30;;;11.80;99.90;;;;;;4981753;28;20490;-85
2022/11/18 11:05:26;;;;;;;5.20;1.30;;;11.80;99.90;;;;;;4996093;28;20098;-85
2022/11/18 11:08:18;;;;;;;4.40;1.40;;;12.60;99.90;;;;;;4985519;28;20031;-85
2022/11/18 11:10:54;;;;;;;6.47;1.48;;;11.80;99.90;;;;;;5001924;28;20118;-86
2022/11/18 11:13:23;;;;;;;6.38;1.60;;;11.80;99.90;;;;;;5000111;28;20505;-87
2022/11/18 11:15:52;;;;;;;8.32;1.35;;;11.70;99.90;;;;;;4995467;28;20045;-87
2022/11/18 11:21:16;;;;;;;9.43;1.77;;;11.70;99.90;;;;;;5006668;28;20542;-86
2022/11/18 11:23:43;;;;;;;5.25;1.60;;;11.60;99.90;;;;;;5011639;28;20026;-84
2022/11/18 11:26:45;;;;;;;8.85;1.67;;;11.70;99.90;;;;;;4985511;28;20027;-86
2022/11/18 11:29:36;;;;;;;8.70;1.45;;;10.50;99.90;;;;;;4971538;28;20029;-87
2022/11/18 11:32:16;;;;;;;8.88;1.75;;;11.70;99.90;;;;;;4974147;28;20027;-89
2022/11/18 11:34:48;;;;;;;7.32;1.67;;;10.90;99.90;;;;;;4981079;28;20069;-87
2022/11/18 11:37:45;;;;;;;6.65;1.60;;;11.70;99.90;;;;;;4988810;28;20026;-88
2022/11/18 11:40:38;;;;;;;7.32;1.90;;;11.70;99.90;;;;;;5007925;28;20033;-89
2022/11/18 11:43:28;;;;;;;11.10;1.70;;;11.70;99.90;;;;;;4998897;28;20223;-84
2022/11/18 11:46:18;;;;;;;6.15;2.38;;;11.70;99.90;;;;;;4995861;28;20034;-86
2022/11/18 11:48:49;;;;;;;5.43;1.67;;;11.70;99.90;;;;;;4995638;28;20035;-84
2022/11/18 11:51:27;;;;;;;5.65;1.50;;;11.70;99.90;;;;;;4994245;28;20019;-84
2022/11/18 11:54:17;;;;;;;10.82;1.90;;;11.80;99.90;;;;;;4987465;28;20023;-84
2022/11/18 11:56:55;;;;;;;3.83;1.50;;;11.80;99.90;;;;;;4994351;28;20094;-85
2022/11/18 11:59:59;;;;;;;6.72;1.98;;;11.80;99.90;;;;;;4994274;23;20043;-83
2022/11/18 12:02:54;;;;;;;6.50;1.20;;;11.80;99.90;;;;;;4964608;28;20065;-86
2022/11/18 12:05:41;;;;;;;7.32;1.48;;;11.80;99.90;;;;;;4966316;28;20027;-85
2022/11/18 12:08:31;;;;;;;8.95;1.63;;;11.90;99.90;;;;;;4967487;28;20081;-85
2022/11/18 12:11:26;;;;;;;6.30;1.30;;;11.90;99.90;;;;;;4967343;28;20027;-85
2022/11/18 12:14:02;;;;;;;2.70;1.23;;;12.30;99.90;;;;;;4971565;28;20112;-83
2022/11/18 12:17:23;;;;;;;7.85;1.50;;;11.80;99.90;;;;;;4969922;28;20055;-83
2022/11/18 12:19:49;;;;;;;4.63;1.30;;;11.70;99.90;;;;;;4902777;29;20028;-82
2022/11/18 12:22:15;;;;;;;8.98;1.60;;;11.70;99.90;;;;;;4904840;29;20128;-84
2022/11/18 12:24:41;;;;;;;6.85;1.63;;;11.60;99.90;;;;;;4868398;29;20039;-82
2022/11/18 12:27:13;;;;;;;2.55;1.20;;;11.60;99.90;;;;;;4909345;28;20419;-81
2022/11/18 12:29:50;;;;;;;6.07;1.33;;;11.60;99.90;;;;;;4964775;28;20030;-81
2022/11/18 12:32:41;;;;;;;5.15;1.45;;;12.70;99.90;;;;;;4964937;28;20442;-82
2022/11/18 12:35:33;;;;;;;3.58;1.25;;;11.60;99.90;;;;;;4981135;28;20083;-85
2022/11/18 12:38:00;;;;;;;5.28;1.75;;;11.50;99.90;;;;;;4959986;28;20035;-83
2022/11/18 12:40:40;;;;;;;7.05;1.40;;;11.50;99.90;;;;;;4977527;28;20042;-84
2022/11/18 12:43:47;;;;;;;6.07;1.42;;;11.40;99.90;;;;;;4979904;28;20033;-85
2022/11/18 12:46:37;;;;;;;6.07;1.73;;;11.40;99.90;;;;;;4980233;28;20027;-86
2022/11/18 12:49:26;;;;;;;;;;;11.40;99.90;;;;;;4980346;28;20011;-86
2022/11/18 12:51:54;;;;;;;6.05;1.55;;;11.40;99.90;;;;;;4953474;28;19921;-85
2022/11/18 12:54:25;;;;;;;8.98;2.08;;;11.40;99.90;;;;;;4979949;28;20027;-85
2022/11/18 12:56:51;;;;;;;5.50;1.40;;;12.10;99.90;;;;;;4996756;28;20082;-86
2022/11/18 12:59:35;;;;;;;7.25;1.55;;;11.50;99.90;;;;;;4979636;28;20062;-85
2022/11/18 13:02:17;;;;;;;8.65;1.60;;;11.60;99.90;;;;;;4996998;28;20046;-83
2022/11/18 13:04:42;;;;;;;8.30;1.73;;;11.50;99.90;;;;;;4979976;28;20030;-85
2022/11/18 13:09:56;;;;;;;5.15;1.40;;;11.80;99.90;;;;;;4992544;28;20041;-84
2022/11/18 13:12:25;;;;;;;10.60;4.50;;;11.90;99.90;;;;;;4972683;28;20022;-85
2022/11/18 13:17:53;;;;;;;8.20;1.58;;;11.90;99.90;;;;;;4981786;28;20051;-83
2022/11/18 13:20:35;;;;;;;6.25;1.45;;;11.80;99.90;;;;;;4950672;29;20467;-84
2022/11/18 13:25:55;;;;;;;6.55;1.10;;;11.90;99.90;;;;;;4988025;28;20739;-84
2022/11/18 13:28:27;;;;;;;4.75;1.60;;;11.80;99.90;;;;;;4978856;28;20236;-83
2022/11/18 13:31:24;;;;;;;6.93;1.60;;;11.90;99.90;;;;;;4970658;28;20027;-84
2022/11/18 13:33:51;;;;;;;4.72;1.60;;;11.90;99.90;;;;;;4969193;28;20037;-85
2022/11/18 13:36:22;;;;;;;5.55;1.30;;;11.90;99.90;;;;;;4969658;28;20046;-83
2022/11/18 13:38:58;;;;;;;4.50;1.30;;;11.80;99.90;;;;;;4956609;28;20037;-85
2022/11/18 13:41:31;;;;;;;6.75;1.50;;;11.90;99.90;;;;;;4962263;28;20034;-85
2022/11/18 13:44:21;;;;;;;7.50;1.85;;;11.70;99.90;;;;;;4963785;28;20030;-82
2022/11/18 13:46:54;;;;;;;6.30;1.70;;;11.60;99.90;;;;;;4984017;28;20050;-84
2022/11/18 13:49:39;;;;;;;4.28;1.33;;;11.50;99.90;;;;;;4957730;28;20051;-82
2022/11/18 13:52:08;;;;;;;5.63;1.75;;;11.40;99.90;;;;;;4970032;28;20034;-84
2022/11/18 13:54:34;;;;;;;4.60;1.30;;;11.30;99.90;;;;;;4969208;28;20031;-86
2022/11/18 13:56:59;;;;;;;5.32;1.30;;;11.30;99.90;;;;;;4969053;28;20037;-83
2022/11/18 13:59:25;;;;;;;4.07;1.30;;;11.20;99.90;;;;;;4969252;28;20066;-85
2022/11/18 14:01:57;;;;;;;7.45;1.40;;;11.00;99.90;;;;;;4969407;28;20049;-84
2022/11/18 14:04:26;;;;;;;13.55;2.45;;;10.90;99.90;;;;;;4969000;28;20034;-83
2022/11/18 14:06:52;;;;;;;6.30;1.27;;;10.80;99.90;;;;;;4966221;28;20031;-85
2022/11/18 14:09:25;;;;;;;3.67;1.40;;;10.70;99.90;;;;;;4967795;28;20015;-85
2022/11/18 14:12:05;;;;;;;8.20;1.60;;;10.70;99.90;;;;;;4974982;28;20027;-85
2022/11/18 14:14:36;;;;;;;5.53;1.30;;;10.60;99.90;;;;;;4964127;29;20055;-83
2022/11/18 14:17:24;;;;;;;2.67;1.10;;;10.40;99.90;;;;;;4965019;28;20027;-85
2022/11/18 14:19:58;;;;;;;9.32;1.65;;;10.30;99.90;;;;;;4978039;28;20191;-83
2022/11/18 14:22:27;;;;;;;3.75;1.45;;;10.30;99.90;;;;;;4984755;28;20487;-82
2022/11/18 14:24:57;;;;;;;8.25;1.95;;;10.40;99.90;;;;;;4983132;28;20125;-81
2022/11/18 14:27:44;;;;;;;4.35;1.67;;;10.40;99.90;;;;;;4983173;28;20033;-84
2022/11/18 14:30:41;;;;;;;6.55;2.15;;;10.40;99.90;;;;;;4985386;28;20456;-82
2022/11/18 14:33:23;;;;;;;6.32;1.90;;;10.40;99.90;;;;;;4984423;28;20029;-86
2022/11/18 14:36:00;;;;;;;6.88;2.30;;;10.50;99.90;;;;;;4972863;28;20023;-86
2022/11/18 14:38:37;;;;;;;4.22;1.75;;;10.50;99.90;;;;;;4970146;28;20022;-85
2022/11/18 14:41:07;;;;;;;8.05;2.22;;;11.80;99.90;;;;;;4969034;28;20027;-84
2022/11/18 14:43:33;;;;;;;8.10;1.83;;;10.50;99.90;;;;;;4967887;28;20054;-86
2022/11/18 14:46:00;;;;;;;3.67;1.60;;;10.50;99.90;;;;;;4968973;28;20034;-83
2022/11/18 14:48:35;;;;;;;6.55;2.00;;;10.60;99.90;;;;;;4961672;28;20031;-86
2022/11/18 14:51:01;;;;;;;7.63;1.52;;;10.50;99.90;;;;;;4967163;28;20019;-84
2022/11/18 14:53:27;;;;;;;5.50;2.28;;;10.60;99.90;;;;;;4967212;28;20058;-85
2022/11/18 14:55:55;;;;;;;4.20;1.50;;;10.50;99.90;;;;;;4968571;28;20026;-85
2022/11/18 14:58:21;;;;;;;4.22;1.20;;;10.40;99.90;;;;;;4967390;28;20031;-82
2022/11/18 15:00:49;;;;;;;5.85;1.60;;;10.50;99.90;;;;;;4965450;28;20104;-85
2022/11/18 15:03:15;;;;;;;9.27;1.65;;;10.40;99.90;;;;;;4968055;28;20037;-84
2022/11/18 15:05:40;;;;;;;7.85;1.85;;;10.90;99.90;;;;;;4966231;28;20027;-87
2022/11/18 15:08:06;;;;;;;6.45;1.70;;;10.30;99.90;;;;;;4968058;28;20073;-86
2022/11/18 15:10:32;;;;;;;7.65;1.98;;;10.40;99.90;;;;;;4969128;28;20400;-85
2022/11/18 15:12:58;;;;;;;6.05;2.15;;;10.40;99.90;;;;;;4959498;28;20027;-83
2022/11/18 15:15:24;;;;;;;6.53;1.73;;;10.40;99.90;;;;;;4954878;28;20027;-85
2022/11/18 15:17:49;;;;;;;5.03;1.52;;;11.50;99.90;;;;;;4967387;28;20147;-86
2022/11/18 15:20:17;;;;;;;6.75;1.42;;;11.40;99.90;;;;;;4960319;28;20031;-86
2022/11/18 15:22:43;;;;;;;6.50;1.63;;;10.30;99.90;;;;;;4975704;28;20086;-83
2022/11/18 15:25:09;;;;;;;12.65;7.22;;;10.50;99.90;;;;;;4954049;28;20057;-86
2022/11/18 15:27:35;;;;;;;7.30;2.97;;;10.30;99.90;;;;;;4970642;28;20057;-85
2022/11/18 15:30:01;;;;;;;12.77;5.90;;;;;;;;;;4967189;28;20500;-83
2022/11/18 15:32:27;;;;;;;12.15;6.20;;;10.30;99.90;;;;;;4983008;28;20030;-84
2022/11/18 15:34:52;;;;;;;10.25;3.80;;;10.30;99.90;;;;;;4964793;28;20053;-83
2022/11/18 15:37:18;;;;;;;8.57;3.53;;;10.30;99.90;;;;;;4982904;28;20025;-85
2022/11/18 15:39:43;;;;;;;3.60;1.65;;;10.30;99.90;;;;;;4963846;28;20027;-85
2022/11/18 15:42:10;;;;;;;5.05;1.75;;;10.30;99.90;;;;;;4971289;28;20034;-86
2022/11/18 15:44:36;;;;;;;9.02;2.10;;;10.60;99.90;;;;;;4963191;28;20019;-81
2022/11/18 15:47:02;;;;;;;4.63;1.70;;;10.30;99.90;;;;;;4962375;28;20518;-86
2022/11/18 15:49:27;;;;;;;11.18;4.22;;;10.30;99.90;;;;;;4962494;28;20023;-87
2022/11/18 15:51:53;;;;;;;6.75;2.10;;;10.20;99.90;;;;;;4963380;28;20498;-87
2022/11/18 15:54:19;;;;;;;4.35;1.73;;;12.60;99.90;;;;;;4962611;28;20094;-86
2022/11/18 15:56:44;;;;;;;6.45;2.22;;;10.20;99.90;;;;;;4979237;28;20546;-87
2022/11/18 15:59:15;;;;;;;7.88;2.20;;;10.30;99.90;;;;;;4968400;28;20059;-85
2022/11/18 16:01:45;;;;;;;10.15;2.67;;;10.10;99.90;;;;;;4945643;28;20046;-85
2022/11/18 16:04:14;;;;;;;6.50;2.42;;;10.80;99.90;;;;;;4962064;28;20139;-86
2022/11/18 16:06:42;;;;;;;8.32;3.22;;;11.40;99.90;;;;;;4962259;28;20047;-83
2022/11/18 16:09:08;;;;;;;9.98;3.42;;;10.80;99.90;;;;;;4964059;28;20105;-87
2022/11/18 16:14:19;;;;;;;8.07;3.03;;;10.10;99.90;;;;;;4981727;28;20064;-85
2022/11/18 16:16:46;;;;;;;9.35;2.90;;;10.10;99.90;;;;;;4965002;28;20030;-87
2022/11/18 16:19:14;;;;;;;8.70;3.03;;;10.60;99.90;;;;;;4964904;28;20041;-87
2022/11/18 16:21:43;;;;;;;7.93;2.30;;;10.10;99.90;;;;;;4966930;28;20087;-87
2022/11/18 16:24:12;;;;;;;13.35;4.43;;;10.70;99.90;;;;;;4964579;28;20098;-83
2022/11/18 16:26:38;;;;;;;10.90;3.10;;;10.80;99.90;;;;;;4965439;28;20090;-86
2022/11/18 16:29:06;;;;;;;9.48;2.45;;;10.10;99.90;;;;;;4960108;28;20062;-86
2022/11/18 16:31:42;;;;;;;7.95;2.17;;;10.20;99.90;;;;;;4975007;28;20030;-83
2022/11/18 16:34:17;;;;;;;8.35;2.30;;;10.10;99.90;;;;;;4963365;28;20046;-86
2022/11/18 16:36:44;;;;;;;13.77;2.40;;;10.60;99.90;;;;;;4951187;28;20495;-85
2022/11/18 16:39:23;;;;;;;7.38;2.05;;;10.10;99.90;;;;;;4949766;28;20122;-85
2022/11/18 16:41:50;;;;;;;7.90;2.17;;;10.10;99.90;;;;;;4953863;28;20022;-87
2022/11/18 16:44:16;;;;;;;10.32;2.20;;;10.10;99.90;;;;;;4969691;28;20025;-83
2022/11/18 16:46:45;;;;;;;8.95;3.00;;;10.10;99.90;;;;;;4971830;28;20039;-83
2022/11/18 16:49:13;;;;;;;6.50;2.17;;;10.10;99.90;;;;;;4989235;28;20019;-84
2022/11/18 16:51:43;;;;;;;8.98;1.98;;;10.10;99.90;;;;;;4987611;28;20051;-86
2022/11/18 16:54:45;;;;;;;8.77;2.22;;;10.10;99.90;;;;;;4959408;28;20042;-87
2022/11/18 16:57:11;;;;;;;8.05;2.70;;;10.00;99.90;;;;;;4939822;28;20067;-87
2022/11/18 16:59:37;;;;;;;11.73;3.20;;;10.00;99.90;;;;;;4968474;28;20027;-86
2022/11/18 17:02:03;;;;;;;14.60;3.60;;;10.00;99.90;;;;;;4973909;28;20090;-86
2022/11/18 17:04:35;;;;;;;10.65;3.00;;;10.00;99.90;;;;;;4977989;28;20027;-86
2022/11/18 17:07:00;;;;;;;9.63;2.95;;;10.10;99.90;;;;;;4975330;28;20030;-85
2022/11/18 17:09:27;;;;;;;9.27;2.35;;;;;;;;;;4982014;28;20226;-86
2022/11/18 17:11:55;;;;;;;9.70;2.47;;;10.10;99.90;;;;;;4969870;28;20031;-83
2022/11/18 17:14:22;;;;;;;10.30;2.58;;;10.10;99.90;;;;;;4954065;28;20114;-84
2022/11/18 17:16:48;;;;;;;8.98;3.22;;;10.20;99.90;;;;;;4957428;28;20031;-83
2022/11/18 17:19:15;;;;;;;7.63;2.72;;;10.10;99.90;;;;;;4957363;28;20033;-86
2022/11/18 17:21:42;;;;;;;8.27;3.00;;;10.10;99.90;;;;;;4958845;28;20081;-85
2022/11/18 17:24:08;;;;;;;10.70;3.42;;;10.90;99.90;;;;;;4972835;28;20027;-86
2022/11/18 17:26:34;;;;;;;7.15;2.25;;;10.40;99.90;;;;;;4960606;28;20121;-84
2022/11/18 17:29:00;;;;;;;7.82;2.33;;;10.10;99.90;;;;;;4946419;28;20023;-84
2022/11/18 17:31:25;;;;;;;11.70;2.38;;;10.10;99.90;;;;;;4968982;28;20126;-88
2022/11/18 17:33:53;;;;;;;8.00;2.53;;;10.10;99.90;;;;;;4954684;28;20031;-85
2022/11/18 17:36:24;;;;;;;9.15;2.22;;;11.90;99.90;;;;;;4960041;28;20066;-87
2022/11/18 17:38:55;;;;;;;12.10;2.70;;;10.00;99.90;;;;;;4961379;28;20034;-85
2022/11/18 17:44:07;;;;;;;7.50;2.28;;;10.10;99.90;;;;;;4969835;28;19929;-87
2022/11/18 17:46:34;;;;;;;11.98;2.53;;;10.10;99.90;;;;;;4957230;28;20101;-86
2022/11/18 17:49:02;;;;;;;9.15;3.00;;;10.10;99.90;;;;;;4958268;28;20103;-85
2022/11/18 17:51:28;;;;;;;7.15;2.60;;;10.10;99.90;;;;;;4959558;28;20027;-84
2022/11/18 17:53:55;;;;;;;11.30;2.67;;;11.20;99.90;;;;;;4977914;28;20506;-86
2022/11/18 17:56:21;;;;;;;9.48;2.47;;;10.10;99.90;;;;;;4972573;28;20038;-86
2022/11/18 17:58:51;;;;;;;10.65;2.78;;;10.10;99.90;;;;;;4955701;28;20035;-85
2022/11/18 18:01:19;;;;;;;10.60;2.72;;;10.00;99.90;;;;;;4951238;28;20086;-85
2022/11/18 18:03:45;;;;;;;8.75;3.15;;;10.00;99.90;;;;;;4959792;28;20395;-86
2022/11/18 18:06:12;;;;;;;12.23;4.25;;;11.10;99.90;;;;;;4960945;28;20488;-85
2022/11/18 18:08:38;;;;;;;10.70;3.92;;;10.00;99.90;;;;;;4975733;28;20011;-86
2022/11/18 18:11:08;;;;;;;15.18;4.82;;;11.10;99.90;;;;;;4957467;28;20027;-84
2022/11/18 18:16:21;;;;;;;7.57;2.78;;;9.90;99.90;;;;;;4983517;28;20046;-81
2022/11/18 18:18:47;;;;;;;8.60;2.70;;;9.90;99.90;;;;;;4966628;28;20058;-84
2022/11/18 18:21:13;;;;;;;12.88;3.30;;;9.90;99.90;;;;;;4969407;28;20050;-86
2022/11/18 18:23:38;;;;;;;10.63;3.55;;;9.80;99.90;;;;;;4968252;28;20049;-85
2022/11/18 18:26:06;;;;;;;21.13;10.88;;;10.00;99.90;;;;;;4963952;28;20034;-87
2022/11/18 18:28:32;;;;;;;12.07;3.55;;;9.90;99.90;;;;;;4982523;28;20035;-86
2022/11/18 18:31:08;;;;;;;11.23;3.72;;;9.70;99.90;;;;;;4982912;28;20026;-88
2022/11/18 18:33:35;;;;;;;10.68;2.90;;;9.70;99.90;;;;;;4981887;28;20019;-85
2022/11/18 18:36:03;;;;;;;40.17;21.60;;;11.10;99.90;;;;;;4963781;28;20038;-84
2022/11/18 18:38:34;;;;;;;23.75;9.60;;;9.70;99.90;;;;;;4980208;28;20031;-85
2022/11/18 18:41:05;;;;;;;26.88;13.77;;;9.70;99.90;;;;;;4976531;28;20027;-85
2022/11/18 18:43:31;;;;;;;10.88;4.10;;;9.70;99.90;;;;;;4988721;28;20047;-83
2022/11/18 18:46:28;;;;;;;14.43;6.47;;;9.70;99.90;;;;;;4994657;28;20038;-83
2022/11/18 18:48:56;;;;;;;13.43;4.47;;;9.70;99.90;;;;;;4982399;28;20018;-83